createdAt,value
2018-05-12T00:00:06.529Z,4.23
2018-05-12T00:02:34.229Z,4.30
2018-05-12T00:05:01.930Z,4.20
2018-05-12T00:07:29.676Z,4.37
2018-05-12T00:09:58.068Z,3.80
2018-05-12T00:12:25.904Z,4.40
2018-05-12T00:14:54.330Z,4.10
2018-05-12T00:17:22.417Z,3.93
2018-05-12T00:19:50.189Z,4.47
2018-05-12T00:22:17.833Z,4.23
2018-05-12T00:24:46.460Z,4.70
2018-05-12T00:27:14.065Z,4.63
2018-05-12T00:29:41.866Z,4.37
2018-05-12T00:32:09.509Z,5.00
2018-05-12T00:34:38.004Z,4.77
2018-05-12T00:37:05.667Z,5.10
2018-05-12T00:39:33.280Z,4.13
2018-05-12T00:42:00.998Z,4.33
2018-05-12T00:44:28.612Z,3.97
2018-05-12T00:46:57.048Z,3.90
2018-05-12T00:49:24.678Z,4.17
2018-05-12T00:51:52.311Z,3.83
2018-05-12T00:54:19.985Z,3.93
2018-05-12T00:56:47.785Z,4.63
2018-05-12T00:59:15.512Z,4.37
2018-05-12T01:01:43.312Z,4.37
2018-05-12T01:04:11.729Z,4.87
2018-05-12T01:06:39.396Z,4.93
2018-05-12T01:09:07.091Z,3.63
2018-05-12T01:11:36.257Z,5.00
2018-05-12T01:14:03.902Z,4.30
2018-05-12T01:16:31.561Z,3.57
2018-05-12T01:18:59.173Z,3.90
2018-05-12T01:21:26.813Z,4.10
2018-05-12T01:23:54.436Z,4.13
2018-05-12T01:26:22.078Z,3.73
2018-05-12T01:28:49.795Z,3.63
2018-05-12T01:31:18.095Z,4.17
2018-05-12T01:33:46.491Z,3.60
2018-05-12T01:36:14.101Z,2.97
2018-05-12T01:38:42.765Z,3.63
2018-05-12T01:41:10.369Z,4.00
2018-05-12T01:43:38.061Z,3.77
2018-05-12T01:46:05.645Z,3.67
2018-05-12T01:48:33.281Z,3.90
2018-05-12T01:51:00.897Z,4.57
2018-05-12T01:53:29.420Z,3.70
2018-05-12T01:55:57.102Z,3.90
2018-05-12T01:58:24.744Z,3.73
2018-05-12T02:00:52.394Z,4.00
2018-05-12T02:03:20.022Z,3.40
2018-05-12T02:05:47.688Z,3.20
2018-05-12T02:08:15.305Z,2.80
2018-05-12T02:10:42.904Z,2.50
2018-05-12T02:13:10.650Z,2.30
2018-05-12T02:15:38.360Z,1.67
2018-05-12T02:18:06.783Z,1.70
2018-05-12T02:20:34.515Z,2.20
2018-05-12T02:23:02.998Z,3.47
2018-05-12T02:25:30.703Z,2.33
2018-05-12T02:27:58.333Z,2.33
2018-05-12T02:30:27.170Z,2.37
2018-05-12T02:32:54.828Z,2.17
2018-05-12T02:35:22.460Z,2.63
2018-05-12T02:37:50.170Z,2.63
2018-05-12T02:40:17.801Z,3.07
2018-05-12T02:42:45.420Z,2.90
2018-05-12T02:45:13.057Z,3.40
2018-05-12T02:47:40.710Z,3.83
2018-05-12T02:50:08.338Z,4.13
2018-05-12T02:52:36.133Z,3.50
2018-05-12T02:55:03.836Z,4.87
2018-05-12T02:57:31.449Z,3.40
2018-05-12T02:59:59.089Z,3.60
2018-05-12T03:02:26.727Z,2.67
2018-05-12T03:04:54.355Z,2.80
2018-05-12T03:07:22.251Z,3.17
2018-05-12T03:09:49.908Z,3.23
2018-05-12T03:12:17.617Z,2.93
2018-05-12T03:14:45.302Z,2.83
2018-05-12T03:17:12.961Z,2.60
2018-05-12T03:19:41.312Z,2.23
2018-05-12T03:22:09.089Z,2.27
2018-05-12T03:24:36.808Z,2.00
2018-05-12T03:27:04.818Z,2.20
2018-05-12T03:29:32.456Z,1.87
2018-05-12T03:32:00.065Z,1.80
2018-05-12T03:34:28.497Z,2.60
2018-05-12T03:36:56.118Z,2.00
2018-05-12T03:39:24.510Z,2.07
2018-05-12T03:41:52.148Z,2.43
2018-05-12T03:44:19.817Z,2.07
2018-05-12T03:46:48.454Z,2.13
2018-05-12T03:49:16.197Z,2.10
2018-05-12T03:51:43.881Z,1.93
2018-05-12T03:54:11.589Z,1.50
2018-05-12T03:56:39.184Z,1.60
2018-05-12T03:59:06.851Z,1.80
2018-05-12T04:01:34.490Z,1.50
2018-05-12T04:04:02.909Z,1.60
2018-05-12T04:06:42.497Z,1.60
2018-05-12T04:09:21.978Z,1.90
2018-05-12T04:12:01.503Z,2.33
2018-05-12T04:14:29.120Z,2.10
2018-05-12T04:16:56.728Z,2.40
2018-05-12T04:19:25.097Z,2.17
2018-05-12T04:21:52.749Z,2.37
2018-05-12T04:24:20.349Z,2.37
2018-05-12T04:26:48.818Z,3.37
2018-05-12T04:29:16.485Z,3.80
2018-05-12T04:31:44.550Z,3.70
2018-05-12T04:34:12.185Z,3.30
2018-05-12T04:36:40.614Z,2.97
2018-05-12T04:39:08.387Z,3.23
2018-05-12T04:41:36.841Z,3.30
2018-05-12T04:44:04.613Z,3.33
2018-05-12T04:46:32.271Z,3.60
2018-05-12T04:48:59.909Z,3.10
2018-05-12T04:51:27.531Z,2.77
2018-05-12T04:53:55.881Z,3.37
2018-05-12T04:56:23.525Z,3.80
2018-05-12T04:58:51.171Z,3.63
2018-05-12T05:01:19.756Z,3.20
2018-05-12T05:03:47.369Z,3.40
2018-05-12T05:06:15.066Z,3.20
2018-05-12T05:08:42.705Z,2.70
2018-05-12T05:11:11.112Z,3.30
2018-05-12T05:13:39.599Z,3.20
2018-05-12T05:16:07.217Z,3.90
2018-05-12T05:18:34.860Z,2.87
2018-05-12T05:21:02.585Z,3.10
2018-05-12T05:23:30.272Z,2.97
2018-05-12T05:25:57.956Z,2.63
2018-05-12T05:28:25.555Z,2.93
2018-05-12T05:30:53.168Z,3.70
2018-05-12T05:33:20.781Z,3.27
2018-05-12T05:35:48.469Z,3.27
2018-05-12T05:38:16.099Z,2.97
2018-05-12T05:40:43.769Z,2.93
2018-05-12T05:43:11.437Z,2.60
2018-05-12T05:45:39.083Z,2.33
2018-05-12T05:48:06.729Z,2.90
2018-05-12T05:50:34.343Z,3.20
2018-05-12T05:53:03.281Z,3.30
2018-05-12T05:55:30.917Z,3.07
2018-05-12T05:57:58.551Z,3.50
2018-05-12T06:00:26.169Z,3.20
2018-05-12T06:02:53.815Z,3.10
2018-05-12T06:05:21.483Z,3.20
2018-05-12T06:07:49.101Z,3.70
2018-05-12T06:10:16.770Z,4.07
2018-05-12T06:12:45.240Z,3.80
2018-05-12T06:15:12.822Z,3.20
2018-05-12T06:17:40.459Z,3.00
2018-05-12T06:20:08.885Z,3.07
2018-05-12T06:22:37.321Z,3.03
2018-05-12T06:25:04.971Z,4.50
2018-05-12T06:27:32.627Z,4.43
2018-05-12T06:30:00.245Z,4.87
2018-05-12T06:32:27.863Z,3.63
2018-05-12T06:34:55.523Z,3.40
2018-05-12T06:37:23.152Z,3.03
2018-05-12T06:39:51.578Z,3.03
2018-05-12T06:42:19.200Z,2.60
2018-05-12T06:44:48.312Z,3.97
2018-05-12T06:47:15.949Z,4.63
2018-05-12T06:49:43.597Z,3.10
2018-05-12T06:52:11.240Z,3.50
2018-05-12T06:54:38.847Z,3.67
2018-05-12T06:57:06.498Z,3.80
2018-05-12T06:59:34.232Z,3.57
2018-05-12T07:02:02.274Z,3.20
2018-05-12T07:04:29.970Z,3.13
2018-05-12T07:06:57.566Z,3.77
2018-05-12T07:09:26.183Z,3.57
2018-05-12T07:11:53.846Z,3.40
2018-05-12T07:14:21.466Z,3.53
2018-05-12T07:16:49.093Z,3.87
2018-05-12T07:19:17.547Z,3.47
2018-05-12T07:21:45.281Z,3.77
2018-05-12T07:24:12.983Z,3.73
2018-05-12T07:26:40.693Z,2.90
2018-05-12T07:29:08.393Z,2.73
2018-05-12T07:31:36.049Z,3.00
2018-05-12T07:34:03.690Z,3.03
2018-05-12T07:36:31.349Z,2.80
2018-05-12T07:38:59.502Z,2.47
2018-05-12T07:41:27.082Z,3.20
2018-05-12T07:43:54.900Z,4.27
2018-05-12T07:46:22.613Z,3.83
2018-05-12T07:48:50.208Z,3.60
2018-05-12T07:51:18.663Z,3.27
2018-05-12T07:53:46.650Z,3.17
2018-05-12T07:56:14.441Z,3.07
2018-05-12T07:58:42.256Z,2.10
2018-05-12T08:01:09.848Z,2.30
2018-05-12T08:03:39.491Z,2.53
2018-05-12T08:06:08.251Z,2.00
2018-05-12T08:08:36.244Z,2.57
2018-05-12T08:11:04.026Z,2.50
2018-05-12T08:13:32.447Z,2.50
2018-05-12T08:16:01.609Z,1.97
2018-05-12T08:18:30.274Z,2.00
2018-05-12T08:20:58.017Z,2.20
2018-05-12T08:23:25.842Z,2.07
2018-05-12T08:25:53.702Z,2.10
2018-05-12T08:28:21.462Z,2.40
2018-05-12T08:30:49.140Z,2.30
2018-05-12T08:33:17.933Z,1.63
2018-05-12T08:35:45.685Z,2.00
2018-05-12T08:38:13.477Z,1.50
2018-05-12T08:40:41.103Z,2.00
2018-05-12T08:43:08.911Z,1.60
2018-05-12T08:45:36.608Z,1.80
2018-05-12T08:48:04.426Z,2.00
2018-05-12T08:50:32.119Z,1.90
2018-05-12T08:52:59.857Z,1.47
2018-05-12T08:55:28.265Z,1.70
2018-05-12T08:57:55.907Z,1.40
2018-05-12T09:00:23.831Z,1.67
2018-05-12T09:02:51.469Z,1.80
2018-05-12T09:05:19.696Z,1.43
2018-05-12T09:07:47.404Z,1.70
2018-05-12T09:10:16.340Z,1.80
2018-05-12T09:12:44.630Z,1.90
2018-05-12T09:15:12.626Z,1.83
2018-05-12T09:17:40.700Z,1.80
2018-05-12T09:20:08.400Z,1.73
2018-05-12T09:22:36.037Z,1.40
2018-05-12T09:25:04.482Z,1.70
2018-05-12T09:27:32.144Z,1.87
2018-05-12T09:30:00.546Z,1.70
2018-05-12T09:32:28.225Z,1.97
2018-05-12T09:34:55.839Z,1.80
2018-05-12T09:37:23.491Z,1.23
2018-05-12T09:39:51.101Z,1.60
2018-05-12T09:42:18.897Z,1.50
2018-05-12T09:44:48.256Z,1.30
2018-05-12T09:47:16.621Z,1.17
2018-05-12T09:49:44.370Z,1.60
2018-05-12T09:52:12.082Z,1.57
2018-05-12T09:54:39.755Z,2.00
2018-05-12T09:57:07.485Z,1.37
2018-05-12T09:59:35.297Z,1.40
2018-05-12T10:02:03.665Z,1.60
2018-05-12T10:04:31.700Z,1.80
2018-05-12T10:07:00.744Z,1.90
2018-05-12T10:09:28.744Z,1.53
2018-05-12T10:11:56.693Z,1.63
2018-05-12T10:14:26.588Z,1.10
2018-05-12T10:16:54.256Z,1.30
2018-05-12T10:19:23.155Z,1.43
2018-05-12T10:21:51.641Z,1.50
2018-05-12T10:24:19.296Z,1.50
2018-05-12T10:26:47.045Z,1.77
2018-05-12T10:29:14.710Z,1.30
2018-05-12T10:31:42.545Z,1.70
2018-05-12T10:34:11.092Z,1.57
2018-05-12T10:36:39.037Z,1.60
2018-05-12T10:41:51.620Z,1.67
2018-05-12T10:44:19.998Z,1.60
2018-05-12T10:46:48.586Z,1.23
2018-05-12T10:49:16.274Z,1.73
2018-05-12T10:51:44.051Z,1.53
2018-05-12T10:54:11.732Z,1.60
2018-05-12T10:56:39.412Z,1.57
2018-05-12T10:59:07.173Z,1.83
2018-05-12T11:01:34.778Z,1.67
2018-05-12T11:04:02.449Z,1.97
2018-05-12T11:06:30.059Z,1.80
2018-05-12T11:08:58.616Z,2.03
2018-05-12T11:11:26.264Z,1.53
2018-05-12T11:13:54.664Z,1.70
2018-05-12T11:16:22.290Z,1.33
2018-05-12T11:18:49.930Z,1.70
2018-05-12T11:21:17.592Z,1.90
2018-05-12T11:23:45.208Z,2.37
2018-05-12T11:26:14.209Z,1.63
2018-05-12T11:28:41.821Z,1.40
2018-05-12T11:31:09.522Z,1.60
2018-05-12T11:33:37.172Z,1.50
2018-05-12T11:36:04.825Z,1.90
2018-05-12T11:38:32.429Z,1.67
2018-05-12T11:41:00.855Z,1.30
2018-05-12T11:43:28.481Z,1.33
2018-05-12T11:45:56.111Z,1.90
2018-05-12T11:48:23.843Z,1.93
2018-05-12T11:50:51.445Z,1.80
2018-05-12T11:53:19.112Z,1.37
2018-05-12T11:55:46.746Z,1.23
2018-05-12T11:58:14.440Z,1.87
2018-05-12T12:00:42.044Z,1.60
2018-05-12T12:03:09.641Z,1.47
2018-05-12T12:05:38.003Z,1.77
2018-05-12T12:08:05.646Z,1.87
2018-05-12T12:10:33.280Z,1.73
2018-05-12T12:13:01.704Z,1.70
2018-05-12T12:15:29.301Z,1.77
2018-05-12T12:17:56.996Z,1.70
2018-05-12T12:20:24.669Z,1.90
2018-05-12T12:22:52.301Z,1.60
2018-05-12T12:25:19.944Z,1.57
2018-05-12T12:27:47.569Z,2.20
2018-05-12T12:30:15.932Z,1.70
2018-05-12T12:32:44.332Z,1.60
2018-05-12T12:35:12.735Z,1.80
2018-05-12T12:37:40.382Z,1.97
2018-05-12T12:40:08.015Z,1.83
2018-05-12T12:42:35.653Z,1.83
2018-05-12T12:45:03.423Z,2.00
2018-05-12T12:47:31.296Z,1.70
2018-05-12T12:49:58.964Z,1.90
2018-05-12T12:52:27.447Z,1.97
2018-05-12T12:54:55.198Z,1.60
2018-05-12T12:57:23.383Z,1.87
2018-05-12T12:59:51.251Z,1.53
2018-05-12T13:02:19.053Z,2.00
2018-05-12T13:04:46.823Z,1.93
2018-05-12T13:07:15.288Z,2.47
2018-05-12T13:12:16.721Z,1.97
2018-05-12T13:14:44.363Z,2.07
2018-05-12T13:17:12.015Z,1.63
2018-05-12T13:19:40.413Z,2.20
2018-05-12T13:22:08.035Z,2.33
2018-05-12T13:24:35.643Z,2.80
2018-05-12T13:27:03.289Z,2.50
2018-05-12T13:29:31.672Z,2.67
2018-05-12T13:31:59.257Z,2.33
2018-05-12T13:34:26.896Z,2.10
2018-05-12T13:36:55.319Z,1.90
2018-05-12T13:39:22.922Z,1.63
2018-05-12T13:41:50.580Z,2.23
2018-05-12T13:44:18.189Z,2.20
2018-05-12T13:46:45.833Z,2.60
2018-05-12T13:49:14.612Z,2.40
2018-05-12T13:51:42.258Z,2.27
2018-05-12T13:54:10.054Z,1.93
2018-05-12T13:56:38.486Z,2.33
2018-05-12T13:59:06.099Z,2.83
2018-05-12T14:01:33.934Z,1.93
2018-05-12T14:04:01.615Z,1.90
2018-05-12T14:06:29.323Z,1.97
2018-05-12T14:08:56.981Z,2.07
2018-05-12T14:11:24.604Z,2.13
2018-05-12T14:13:52.206Z,2.30
2018-05-12T14:16:19.848Z,2.40
2018-05-12T14:18:47.476Z,2.53
2018-05-12T14:21:15.385Z,2.27
2018-05-12T14:23:43.936Z,2.00
2018-05-12T14:26:12.045Z,2.30
2018-05-12T14:28:39.808Z,2.30
2018-05-12T14:31:08.253Z,2.10
2018-05-12T14:33:36.118Z,2.33
2018-05-12T14:36:04.053Z,2.60
2018-05-12T14:38:31.813Z,2.03
2018-05-12T14:40:59.458Z,2.37
2018-05-12T14:43:27.316Z,2.20
2018-05-12T14:45:57.162Z,2.10
2018-05-12T14:48:26.696Z,2.70
2018-05-12T14:50:59.319Z,2.57
2018-05-12T14:53:27.299Z,3.00
2018-05-12T14:55:55.807Z,2.00
2018-05-12T14:58:24.344Z,2.23
2018-05-12T15:00:52.150Z,2.40
2018-05-12T15:03:19.773Z,2.17
2018-05-12T15:05:47.555Z,1.97
2018-05-12T15:08:15.240Z,2.63
2018-05-12T15:10:42.897Z,1.90
2018-05-12T15:13:10.695Z,2.17
2018-05-12T15:15:39.208Z,2.53
2018-05-12T15:18:07.704Z,1.90
2018-05-12T15:20:35.318Z,1.90
2018-05-12T15:23:03.769Z,1.73
2018-05-12T15:25:31.427Z,2.50
2018-05-12T15:27:59.053Z,2.43
2018-05-12T15:30:27.627Z,2.03
2018-05-12T15:32:56.078Z,1.87
2018-05-12T15:35:23.742Z,2.07
2018-05-12T15:37:51.399Z,2.27
2018-05-12T15:40:19.044Z,2.20
2018-05-12T15:42:46.662Z,2.13
2018-05-12T15:45:14.382Z,1.73
2018-05-12T15:47:42.051Z,2.30
2018-05-12T15:50:09.760Z,1.60
2018-05-12T15:52:37.731Z,1.83
2018-05-12T15:55:06.290Z,1.80
2018-05-12T15:57:33.997Z,1.63
2018-05-12T16:00:01.664Z,2.20
2018-05-12T16:02:30.250Z,2.23
2018-05-12T16:04:58.792Z,2.17
2018-05-12T16:07:27.692Z,2.10
2018-05-12T16:09:55.388Z,1.73
2018-05-12T16:12:23.025Z,2.00
2018-05-12T16:14:50.730Z,2.60
2018-05-12T16:17:18.389Z,2.00
2018-05-12T16:19:46.493Z,2.00
2018-05-12T16:22:17.675Z,1.50
2018-05-12T16:24:45.448Z,1.80
2018-05-12T16:27:13.088Z,1.60
2018-05-12T16:29:40.724Z,1.87
2018-05-12T16:32:08.357Z,2.10
2018-05-12T16:34:36.781Z,1.63
2018-05-12T16:37:04.883Z,2.20
2018-05-12T16:39:32.533Z,1.97
2018-05-12T16:42:00.445Z,1.40
2018-05-12T16:44:28.861Z,1.60
2018-05-12T16:46:56.512Z,1.60
2018-05-12T16:49:24.157Z,1.53
2018-05-12T16:51:51.814Z,1.40
2018-05-12T16:54:19.490Z,1.97
2018-05-12T16:56:47.153Z,1.40
2018-05-12T16:59:16.297Z,1.83
2018-05-12T17:01:43.897Z,1.90
2018-05-12T17:04:11.520Z,1.50
2018-05-12T17:06:39.745Z,1.40
2018-05-12T17:09:07.488Z,2.13
2018-05-12T17:11:35.650Z,2.00
2018-05-12T17:14:03.361Z,2.07
2018-05-12T17:16:31.777Z,1.80
2018-05-12T17:18:59.808Z,1.70
2018-05-12T17:21:28.529Z,1.60
2018-05-12T17:24:03.936Z,1.87
2018-05-12T17:26:31.615Z,1.63
2018-05-12T17:29:00.027Z,1.93
2018-05-12T17:31:27.714Z,1.80
2018-05-12T17:33:55.676Z,3.57
2018-05-12T17:36:23.813Z,2.60
2018-05-12T17:38:52.260Z,1.60
2018-05-12T17:41:20.699Z,1.70
2018-05-12T17:43:49.846Z,1.80
2018-05-12T17:46:17.492Z,2.00
2018-05-12T17:48:45.170Z,1.93
2018-05-12T17:51:12.828Z,1.67
2018-05-12T17:53:40.459Z,2.30
2018-05-12T17:56:08.138Z,1.27
2018-05-12T17:58:35.769Z,1.37
2018-05-12T18:01:04.379Z,1.57
2018-05-12T18:03:33.953Z,1.70
2018-05-12T18:06:01.633Z,1.70
2018-05-12T18:08:30.036Z,1.50
2018-05-12T18:10:57.640Z,1.43
2018-05-12T18:13:26.049Z,1.30
2018-05-12T18:15:54.465Z,1.37
2018-05-12T18:18:22.191Z,1.27
2018-05-12T18:20:49.924Z,1.30
2018-05-12T18:23:17.645Z,1.47
2018-05-12T18:25:45.235Z,1.50
2018-05-12T18:28:12.867Z,1.37
2018-05-12T18:30:41.284Z,1.60
2018-05-12T18:33:08.945Z,1.30
2018-05-12T18:35:36.633Z,1.40
2018-05-12T18:38:04.307Z,1.30
2018-05-12T18:40:31.971Z,1.57
2018-05-12T18:42:59.991Z,1.60
2018-05-12T18:45:35.728Z,1.60
2018-05-12T18:48:11.025Z,1.57
2018-05-12T18:50:40.277Z,1.20
2018-05-12T18:53:08.976Z,1.60
2018-05-12T18:55:38.044Z,1.60
2018-05-12T18:58:05.738Z,1.80
2018-05-12T19:00:34.145Z,1.33
2018-05-12T19:03:02.476Z,1.40
2018-05-12T19:05:30.178Z,1.50
2018-05-12T19:07:59.477Z,1.40
2018-05-12T19:10:27.173Z,1.50
2018-05-12T19:12:55.561Z,1.60
2018-05-12T19:15:23.296Z,1.63
2018-05-12T19:17:51.381Z,1.70
2018-05-12T19:20:19.062Z,1.63
2018-05-12T19:22:46.737Z,1.30
2018-05-12T19:25:14.487Z,1.77
2018-05-12T19:27:42.288Z,1.57
2018-05-12T19:30:10.790Z,1.73
2018-05-12T19:32:38.584Z,1.80
2018-05-12T19:35:06.290Z,1.47
2018-05-12T19:37:33.960Z,1.60
2018-05-12T19:40:01.987Z,1.90
2018-05-12T19:42:29.895Z,1.67
2018-05-12T19:44:57.784Z,1.50
2018-05-12T19:47:25.987Z,1.60
2018-05-12T19:49:53.682Z,1.40
2018-05-12T19:52:21.301Z,1.70
2018-05-12T19:54:48.933Z,1.73
2018-05-12T19:57:16.625Z,2.20
2018-05-12T19:59:45.336Z,2.00
2018-05-12T20:02:13.088Z,1.80
2018-05-12T20:04:40.742Z,1.50
2018-05-12T20:07:08.443Z,1.37
2018-05-12T20:09:36.267Z,1.63
2018-05-12T20:12:05.122Z,1.60
2018-05-12T20:14:32.737Z,1.87
2018-05-12T20:17:00.517Z,2.40
2018-05-12T20:19:28.249Z,2.30
2018-05-12T20:21:56.700Z,2.03
2018-05-12T20:24:24.445Z,1.60
2018-05-12T20:26:52.949Z,1.60
2018-05-12T20:29:21.741Z,1.60
2018-05-12T20:31:49.586Z,1.90
2018-05-12T20:34:18.058Z,1.80
2018-05-12T20:36:45.889Z,1.60
2018-05-12T20:39:13.993Z,1.53
2018-05-12T20:41:41.669Z,1.40
2018-05-12T20:44:09.425Z,1.50
2018-05-12T20:46:37.113Z,2.03
2018-05-12T20:49:05.589Z,2.60
2018-05-12T20:51:33.673Z,2.53
2018-05-12T20:54:03.414Z,2.30
2018-05-12T20:56:32.782Z,2.37
2018-05-12T20:59:01.685Z,2.50
2018-05-12T21:01:29.474Z,2.13
2018-05-12T21:03:57.234Z,1.87
2018-05-12T21:06:24.917Z,1.60
2018-05-12T21:08:53.829Z,1.37
2018-05-12T21:11:22.614Z,1.23
2018-05-12T21:13:50.257Z,1.70
2018-05-12T21:16:18.060Z,2.30
2018-05-12T21:18:45.756Z,2.40
2018-05-12T21:21:14.109Z,2.20
2018-05-12T21:23:42.086Z,1.80
2018-05-12T21:26:10.597Z,1.90
2018-05-12T21:28:38.640Z,1.40
2018-05-12T21:31:06.332Z,1.33
2018-05-12T21:33:34.196Z,1.40
2018-05-12T21:36:02.128Z,1.67
2018-05-12T21:38:29.766Z,1.73
2018-05-12T21:40:58.407Z,1.37
2018-05-12T21:43:26.268Z,1.73
2018-05-12T21:45:54.282Z,1.60
2018-05-12T21:48:22.234Z,1.80
2018-05-12T21:50:51.441Z,1.80
2018-05-12T21:53:19.496Z,2.10
2018-05-12T21:55:47.489Z,2.20
2018-05-12T21:58:16.133Z,2.50
2018-05-12T22:00:43.793Z,2.60
2018-05-12T22:03:11.428Z,2.20
2018-05-12T22:05:39.132Z,2.30
2018-05-12T22:08:06.848Z,2.33
2018-05-12T22:10:35.001Z,2.50
2018-05-12T22:13:03.513Z,2.27
2018-05-12T22:15:31.176Z,2.60
2018-05-12T22:17:58.965Z,2.43
2018-05-12T22:20:27.349Z,2.33
2018-05-12T22:22:54.990Z,2.10
2018-05-12T22:25:23.457Z,2.00
2018-05-12T22:27:52.716Z,2.60
2018-05-12T22:30:20.349Z,2.77
2018-05-12T22:32:48.094Z,2.47
2018-05-12T22:35:15.710Z,2.70
2018-05-12T22:37:43.361Z,2.47
2018-05-12T22:40:10.986Z,2.53
2018-05-12T22:42:39.475Z,1.90
2018-05-12T22:45:07.860Z,2.87
2018-05-12T22:47:36.355Z,2.67
2018-05-12T22:50:04.096Z,2.50
2018-05-12T22:52:32.724Z,2.23
2018-05-12T22:55:00.572Z,1.80
2018-05-12T22:57:28.244Z,2.23
2018-05-12T22:59:55.940Z,2.27
2018-05-12T23:02:23.576Z,2.40
2018-05-12T23:04:51.172Z,2.17
2018-05-12T23:07:18.934Z,2.23
2018-05-12T23:09:46.549Z,1.87
2018-05-12T23:12:14.936Z,2.33
2018-05-12T23:14:43.915Z,2.00
2018-05-12T23:17:12.382Z,2.57
2018-05-12T23:19:40.016Z,1.93
2018-05-12T23:22:07.660Z,2.40
2018-05-12T23:24:35.270Z,1.50
2018-05-12T23:27:03.433Z,1.93
2018-05-12T23:29:31.193Z,1.97
2018-05-12T23:31:58.796Z,1.83
2018-05-12T23:34:26.458Z,1.90
2018-05-12T23:36:54.182Z,1.70
2018-05-12T23:39:21.781Z,1.63
2018-05-12T23:41:49.441Z,1.80
2018-05-12T23:44:18.148Z,1.80
2018-05-12T23:46:46.528Z,1.80
2018-05-12T23:49:14.925Z,2.10
2018-05-12T23:51:42.562Z,2.10
2018-05-12T23:54:10.171Z,2.17
2018-05-12T23:56:38.119Z,1.90
2018-05-12T23:59:06.574Z,1.87
